createdAt,value
2023-03-21T00:04:50.638Z,13.00
2023-03-21T00:09:59.126Z,12.30
2023-03-21T00:20:15.324Z,10.20
2023-03-21T00:25:18.378Z,13.00
2023-03-21T00:30:21.595Z,14.10
2023-03-21T00:36:06.734Z,11.50
2023-03-21T00:40:49.266Z,14.50
2023-03-21T00:45:52.316Z,14.40
2023-03-21T00:50:57.508Z,16.60
2023-03-21T00:56:00.391Z,10.80
2023-03-21T01:01:04.623Z,14.10
2023-03-21T01:06:09.089Z,15.10
2023-03-21T01:11:15.787Z,15.40
2023-03-21T01:16:19.010Z,11.70
2023-03-21T01:26:25.192Z,12.90
2023-03-21T01:36:31.233Z,13.30
2023-03-21T01:41:43.109Z,10.00
2023-03-21T01:52:29.833Z,14.90
2023-03-21T01:57:52.147Z,15.20
2023-03-21T02:03:20.973Z,16.30
2023-03-21T02:08:39.201Z,13.70
2023-03-21T02:13:43.019Z,15.30
2023-03-21T02:19:12.616Z,17.80
2023-03-21T02:24:54.587Z,18.10
2023-03-21T02:30:49.071Z,12.70
2023-03-21T02:36:14.987Z,12.80
2023-03-21T02:41:40.708Z,14.20
2023-03-21T02:47:17.314Z,14.40
2023-03-21T02:52:37.741Z,14.70
2023-03-21T02:57:45.365Z,17.30
2023-03-21T03:02:56.987Z,15.60
2023-03-21T03:08:32.444Z,14.10
2023-03-21T03:13:51.965Z,16.30
2023-03-21T03:18:59.717Z,15.20
2023-03-21T03:24:11.588Z,18.60
2023-03-21T03:29:17.911Z,16.20
2023-03-21T03:34:26.441Z,16.70
2023-03-21T03:39:40.624Z,20.80
2023-03-21T03:44:44.641Z,16.90
2023-03-21T03:49:56.716Z,17.30
2023-03-21T03:55:00.708Z,17.70
2023-03-21T04:00:11.901Z,18.50
2023-03-21T04:05:15.419Z,20.20
2023-03-21T04:10:20.009Z,17.20
2023-03-21T04:15:23.168Z,19.30
2023-03-21T04:25:55.932Z,15.00
2023-03-21T04:36:24.929Z,22.80
2023-03-21T04:41:28.691Z,23.00
2023-03-21T04:46:32.049Z,21.00
2023-03-21T04:51:36.486Z,19.90
2023-03-21T04:56:39.763Z,16.50
2023-03-21T05:06:47.039Z,21.00
2023-03-21T05:11:50.420Z,193.40
2023-03-21T05:16:54.433Z,21.60
2023-03-21T05:21:57.485Z,20.40
2023-03-21T05:27:02.626Z,26.80
2023-03-21T05:32:05.856Z,26.50
2023-03-21T05:42:11.557Z,23.20
2023-03-21T05:47:16.611Z,25.10
2023-03-21T05:52:19.619Z,28.00
2023-03-21T05:57:23.136Z,19.70
2023-03-21T06:02:26.267Z,24.60
2023-03-21T06:12:32.062Z,27.40
2023-03-21T06:17:34.970Z,21.40
2023-03-21T06:22:38.478Z,26.80
2023-03-21T06:27:41.592Z,27.70
2023-03-21T06:32:44.488Z,26.80
2023-03-21T06:37:49.501Z,25.80
2023-03-21T06:42:52.531Z,24.70
2023-03-21T06:47:55.494Z,28.30
2023-03-21T06:52:59.488Z,25.70
2023-03-21T06:58:02.508Z,20.30
2023-03-21T07:03:05.315Z,34.30
2023-03-21T07:08:12.833Z,27.30
2023-03-21T07:13:16.388Z,25.20
2023-03-21T07:18:19.275Z,29.00
2023-03-21T07:23:25.806Z,22.10
2023-03-21T07:28:28.736Z,29.60
2023-03-21T07:33:32.981Z,23.10
2023-03-21T07:38:36.082Z,24.40
2023-03-21T07:43:39.559Z,37.00
2023-03-21T07:48:42.595Z,28.90
2023-03-21T07:53:48.692Z,26.40
2023-03-21T07:58:51.595Z,18.20
2023-03-21T08:03:54.604Z,19.10
2023-03-21T08:08:58.806Z,16.20
2023-03-21T08:14:03.750Z,18.90
2023-03-21T08:19:11.002Z,16.90
2023-03-21T08:24:14.175Z,14.90
2023-03-21T08:29:17.694Z,16.20
2023-03-21T08:34:20.902Z,14.40
2023-03-21T08:39:25.092Z,13.10
2023-03-21T08:44:28.195Z,12.60
2023-03-21T08:49:31.064Z,13.60
2023-03-21T08:54:34.125Z,12.20
2023-03-21T09:04:41.450Z,12.20
2023-03-21T09:09:45.943Z,13.80
2023-03-21T09:14:50.966Z,16.90
2023-03-21T09:19:54.210Z,11.80
2023-03-21T09:35:05.860Z,15.90
2023-03-21T09:40:35.573Z,10.50
2023-03-21T09:45:59.931Z,13.40
2023-03-21T09:51:05.196Z,9.20
2023-03-21T09:56:12.568Z,12.50
2023-03-21T10:01:34.668Z,15.70
2023-03-21T10:06:41.355Z,16.90
2023-03-21T10:11:52.417Z,13.90
2023-03-21T10:17:05.047Z,16.30
2023-03-21T10:22:09.321Z,20.30
2023-03-21T10:27:15.727Z,13.40
2023-03-21T10:32:19.482Z,13.10
2023-03-21T10:37:23.303Z,10.00
2023-03-21T10:42:33.055Z,14.30
2023-03-21T10:47:36.314Z,10.70
2023-03-21T10:52:52.981Z,12.50
2023-03-21T10:58:10.922Z,16.60
2023-03-21T11:03:29.561Z,11.10
2023-03-21T11:08:41.350Z,12.30
2023-03-21T11:13:45.558Z,14.90
2023-03-21T11:18:56.760Z,12.00
2023-03-21T11:23:59.713Z,13.70
2023-03-21T11:29:27.898Z,15.70
2023-03-21T11:34:40.288Z,11.70
2023-03-21T11:39:45.757Z,10.50
2023-03-21T11:44:50.786Z,20.60
2023-03-21T11:50:04.174Z,11.80
2023-03-21T11:55:16.824Z,16.50
2023-03-21T12:00:33.810Z,13.50
2023-03-21T12:05:44.516Z,12.20
2023-03-21T12:10:58.351Z,14.70
2023-03-21T12:16:28.445Z,20.90
2023-03-21T12:21:46.096Z,15.80
2023-03-21T12:27:02.319Z,20.10
2023-03-21T12:32:40.894Z,12.70
2023-03-21T12:38:05.869Z,16.50
2023-03-21T12:43:27.402Z,13.40
2023-03-21T12:48:49.201Z,11.50
2023-03-21T12:53:53.155Z,18.30
2023-03-21T12:59:34.729Z,85.90
2023-03-21T13:05:00.851Z,88.30
2023-03-21T13:10:14.018Z,48.90
2023-03-21T13:15:29.032Z,38.10
2023-03-21T13:20:49.104Z,84.50
2023-03-21T13:25:55.830Z,23.20
2023-03-21T13:31:20.222Z,11.00
2023-03-21T13:36:29.426Z,23.10
2023-03-21T13:41:39.032Z,16.80
2023-03-21T13:46:54.856Z,12.70
2023-03-21T13:52:00.469Z,14.50
2023-03-21T13:57:07.203Z,47.20
2023-03-21T14:02:30.515Z,12.00
2023-03-21T14:07:42.679Z,10.00
2023-03-21T14:12:47.568Z,11.80
2023-03-21T14:17:53.805Z,9.20
2023-03-21T14:22:57.019Z,14.40
2023-03-21T14:28:04.093Z,14.40
2023-03-21T14:33:27.471Z,15.80
2023-03-21T14:38:35.835Z,14.20
2023-03-21T14:43:47.966Z,12.30
2023-03-21T14:48:52.436Z,12.10
2023-03-21T14:54:04.455Z,17.30
2023-03-21T14:59:12.234Z,18.50
2023-03-21T15:04:17.010Z,12.80
2023-03-21T15:09:22.651Z,12.40
2023-03-21T15:14:35.307Z,15.60
2023-03-21T15:24:49.071Z,13.70
2023-03-21T15:29:57.087Z,21.90
2023-03-21T15:35:13.411Z,13.70
2023-03-21T15:40:27.536Z,13.90
2023-03-21T15:45:31.086Z,11.00
2023-03-21T15:50:38.283Z,13.40
2023-03-21T15:55:52.035Z,11.00
2023-03-21T16:00:57.601Z,13.30
2023-03-21T16:06:12.922Z,13.50
2023-03-21T16:11:36.917Z,20.10
2023-03-21T16:16:40.259Z,19.50
2023-03-21T16:21:43.441Z,22.10
2023-03-21T16:26:51.020Z,21.00
2023-03-21T16:31:53.998Z,22.90
2023-03-21T16:36:57.067Z,18.50
2023-03-21T16:47:02.671Z,28.70
2023-03-21T16:57:28.183Z,25.90
2023-03-21T17:02:31.653Z,90.50
2023-03-21T17:07:34.579Z,64.70
2023-03-21T17:12:37.567Z,55.60
2023-03-21T17:17:42.477Z,50.20
2023-03-21T17:22:46.155Z,40.00
2023-03-21T17:27:53.273Z,75.40
2023-03-21T17:32:56.353Z,104.40
2023-03-21T17:37:59.358Z,138.00
2023-03-21T17:43:02.256Z,129.60
2023-03-21T17:48:05.849Z,108.00
2023-03-21T17:53:09.093Z,107.10
2023-03-21T18:03:17.814Z,141.70
2023-03-21T18:08:22.139Z,198.30
2023-03-21T18:18:28.483Z,258.60
2023-03-21T18:23:32.656Z,200.10
2023-03-21T18:28:41.177Z,222.20
2023-03-21T18:33:46.865Z,185.90
2023-03-21T18:38:49.969Z,214.80
2023-03-21T18:44:06.555Z,180.30
2023-03-21T18:59:42.582Z,108.00
2023-03-21T19:04:45.599Z,84.80
2023-03-21T19:10:16.112Z,77.10
2023-03-21T19:15:11.951Z,81.90
2023-03-21T19:20:16.642Z,72.00
2023-03-21T19:25:19.690Z,82.10
2023-03-21T19:30:22.610Z,99.90
2023-03-21T19:35:25.801Z,110.90
2023-03-21T19:40:28.911Z,126.40
2023-03-21T19:45:32.077Z,122.90
2023-03-21T19:50:57.903Z,100.10
2023-03-21T19:56:03.452Z,92.40
2023-03-21T20:01:06.760Z,97.00
2023-03-21T20:06:11.609Z,66.10
2023-03-21T20:11:15.519Z,63.30
2023-03-21T20:16:20.379Z,75.90
2023-03-21T20:21:25.837Z,99.00
2023-03-21T20:26:28.835Z,141.20
2023-03-21T20:31:32.188Z,126.60
2023-03-21T20:36:40.793Z,100.10
2023-03-21T20:41:44.304Z,91.40
2023-03-21T20:46:47.853Z,97.00
2023-03-21T21:02:17.221Z,65.20
2023-03-21T21:07:22.232Z,82.20
2023-03-21T21:12:28.699Z,77.50
2023-03-21T21:18:02.082Z,113.30
2023-03-21T21:22:59.988Z,109.30
2023-03-21T21:28:09.403Z,146.20
2023-03-21T21:33:14.694Z,101.40
2023-03-21T21:38:19.489Z,94.80
2023-03-21T21:43:23.152Z,93.90
2023-03-21T21:48:27.290Z,115.00
2023-03-21T21:53:33.942Z,76.70
2023-03-21T21:58:46.204Z,72.40
2023-03-21T22:03:51.771Z,58.30
2023-03-21T22:08:54.766Z,87.90
2023-03-21T22:13:57.668Z,62.80
2023-03-21T22:19:00.485Z,60.70
2023-03-21T22:24:03.474Z,58.90
2023-03-21T22:29:08.329Z,72.70
2023-03-21T22:34:11.406Z,52.60
2023-03-21T22:39:14.344Z,58.60
2023-03-21T22:44:17.248Z,57.60
2023-03-21T22:49:20.459Z,73.90
2023-03-21T22:59:27.186Z,58.10
2023-03-21T23:04:30.163Z,48.80
2023-03-21T23:09:33.804Z,75.90
2023-03-21T23:14:36.925Z,53.70
2023-03-21T23:19:41.061Z,47.10
2023-03-21T23:24:44.158Z,54.10
2023-03-21T23:29:47.272Z,65.10
2023-03-21T23:34:50.480Z,48.20
2023-03-21T23:44:58.439Z,45.00
2023-03-21T23:50:01.338Z,69.50
2023-03-21T23:55:05.842Z,49.50
